Time;durP1;ratioP1;P1;durP2;ratioP2;P2;SDS_P1;SDS_P2;PMS_P1;PMS_P2;Temp;Humidity;BMP_temperature;BMP_pressure;BME280_temperature;BME280_humidity;BME280_pressure;Samples;Min_cycle;Max_cycle;Signal;HPM_P1;HPM_P2
2024/04/12 00:01:18;;;;;;;1.57;0.90;;;21.90;62.30;;;;;;5327846;26;20437;-96
2024/04/12 00:03:48;;;;;;;1.60;0.80;;;21.80;62.20;;;;;;5359442;26;20488;-96
2024/04/12 00:06:17;;;;;;;1.90;1.10;;;21.80;62.30;;;;;;5359169;26;20211;-96
2024/04/12 00:08:47;;;;;;;1.60;0.90;;;21.80;62.30;;;;;;5360542;26;20438;-95
2024/04/12 00:11:18;;;;;;;1.60;0.93;;;21.80;62.30;;;;;;5359438;26;20445;-96
2024/04/12 00:13:47;;;;;;;2.00;1.10;;;21.80;62.20;;;;;;5356772;26;20488;-92
2024/04/12 00:16:17;;;;;;;1.93;0.90;;;21.90;62.30;;;;;;5364056;26;20505;-96
2024/04/12 00:18:57;;;;;;;1.80;1.10;;;21.80;62.30;;;;;;5362729;26;20445;-94
2024/04/12 00:21:23;;;;;;;2.00;1.00;;;21.80;62.20;;;;;;5358594;26;20465;-96
2024/04/12 00:23:53;;;;;;;1.57;0.80;;;21.80;62.30;;;;;;5358991;26;20441;-96
2024/04/12 00:26:27;;;;;;;1.63;0.90;;;21.90;62.40;;;;;;5358751;26;20230;-96
2024/04/12 00:28:58;;;;;;;1.70;1.07;;;21.80;62.30;;;;;;5357956;26;20446;-96
2024/04/12 00:31:42;;;;;;;1.90;1.50;;;21.80;62.30;;;;;;5358521;26;20457;-96
2024/04/12 00:34:10;;;;;;;2.00;1.00;;;21.80;62.30;;;;;;5358011;26;20441;-96
2024/04/12 00:36:37;;;;;;;2.20;1.20;;;21.80;62.30;;;;;;5358305;26;20773;-96
2024/04/12 00:39:06;;;;;;;1.93;0.90;;;21.90;62.50;;;;;;5357613;26;20529;-96
2024/04/12 00:41:36;;;;;;;1.70;1.00;;;21.90;62.50;;;;;;5328244;26;20513;-94
2024/04/12 00:44:08;;;;;;;1.60;1.10;;;21.90;62.50;;;;;;5358181;26;20525;-96
2024/04/12 00:46:40;;;;;;;3.10;1.10;;;21.80;62.40;;;;;;5357984;26;20437;-96
2024/04/12 00:49:08;;;;;;;1.60;0.97;;;21.90;62.50;;;;;;5357742;26;20449;-96
2024/04/12 00:51:35;;;;;;;1.70;1.00;;;21.90;62.50;;;;;;5357778;26;20498;-96
2024/04/12 00:54:06;;;;;;;1.90;1.30;;;21.80;62.40;;;;;;5327154;26;20556;-96
2024/04/12 00:56:37;;;;;;;2.27;1.33;;;21.70;62.30;;;;;;5327424;26;20457;-94
2024/04/12 00:59:08;;;;;;;1.67;1.10;;;21.80;62.40;;;;;;5356887;26;20549;-96
2024/04/12 01:01:34;;;;;;;1.80;1.20;;;21.80;62.40;;;;;;5357910;26;20520;-95
2024/04/12 01:04:03;;;;;;;1.80;1.03;;;21.80;62.40;;;;;;5356953;26;20895;-96
2024/04/12 01:06:29;;;;;;;1.50;0.90;;;21.90;62.50;;;;;;5357529;26;20274;-96
2024/04/12 01:09:10;;;;;;;1.70;1.10;;;21.90;62.50;;;;;;5356947;26;20449;-96
2024/04/12 01:11:40;;;;;;;1.60;0.90;;;21.80;62.40;;;;;;5358853;26;20437;-96
2024/04/12 01:14:09;;;;;;;1.87;1.13;;;21.80;62.50;;;;;;5357065;26;20453;-96
2024/04/12 01:16:38;;;;;;;1.67;0.93;;;21.80;62.40;;;;;;5357093;26;20593;-96
2024/04/12 01:19:11;;;;;;;2.00;1.07;;;21.90;62.50;;;;;;5352540;26;20445;-96
2024/04/12 01:21:38;;;;;;;1.53;0.80;;;21.80;62.50;;;;;;5352889;26;20462;-95
2024/04/12 01:24:07;;;;;;;1.63;1.20;;;21.80;62.50;;;;;;5322024;26;20512;-96
2024/04/12 01:26:36;;;;;;;1.57;0.93;;;21.80;62.40;;;;;;5352120;26;20537;-96
2024/04/12 01:29:05;;;;;;;1.93;1.00;;;21.80;62.50;;;;;;5351619;26;20445;-96
2024/04/12 01:31:34;;;;;;;1.83;1.10;;;21.80;62.50;;;;;;5355524;26;20445;-96
2024/04/12 01:34:04;;;;;;;1.90;1.00;;;21.70;62.30;;;;;;5324722;26;20457;-94
2024/04/12 01:36:32;;;;;;;1.83;0.90;;;21.70;62.30;;;;;;5353794;26;20457;-96
2024/04/12 01:39:00;;;;;;;1.80;0.90;;;21.70;62.30;;;;;;5352801;26;20441;-94
2024/04/12 01:41:27;;;;;;;1.50;0.90;;;21.70;62.30;;;;;;5353150;26;20445;-96
2024/04/12 01:44:04;;;;;;;1.63;1.00;;;21.80;62.50;;;;;;5354606;26;20497;-96
2024/04/12 01:46:31;;;;;;;1.83;1.00;;;21.90;62.60;;;;;;5359563;26;20566;-94
2024/04/12 01:49:00;;;;;;;2.80;1.10;;;21.80;62.50;;;;;;5369482;26;20449;-92
2024/04/12 01:51:26;;;;;;;1.70;1.00;;;21.80;62.50;;;;;;5371213;26;20520;-92
2024/04/12 01:53:57;;;;;;;1.70;1.00;;;21.80;62.50;;;;;;5358761;26;21066;-96
2024/04/12 01:56:23;;;;;;;1.70;1.00;;;21.80;62.50;;;;;;5359014;26;20508;-94
2024/04/12 01:58:54;;;;;;;1.90;1.10;;;21.80;62.50;;;;;;5373245;26;20445;-91
2024/04/12 02:01:26;;;;;;;2.00;1.20;;;21.80;62.50;;;;;;5373512;26;20479;-92
2024/04/12 02:03:55;;;;;;;1.60;0.90;;;21.90;62.60;;;;;;5373335;26;20445;-93
2024/04/12 02:06:23;;;;;;;2.40;1.30;;;21.90;62.60;;;;;;5365420;26;20493;-95
2024/04/12 02:08:52;;;;;;;1.70;0.90;;;21.80;62.60;;;;;;5363707;26;20449;-94
2024/04/12 02:11:23;;;;;;;1.50;0.90;;;21.70;62.40;;;;;;5360704;26;20502;-96
2024/04/12 02:13:54;;;;;;;1.60;0.90;;;21.70;62.40;;;;;;5356866;26;20473;-96
2024/04/12 02:16:22;;;;;;;1.60;0.90;;;21.70;62.40;;;;;;5357669;26;20441;-96
2024/04/12 02:18:51;;;;;;;1.87;1.00;;;21.90;62.70;;;;;;5361137;26;20440;-95
2024/04/12 02:21:21;;;;;;;1.70;1.20;;;21.80;62.50;;;;;;5367437;26;20559;-95
2024/04/12 02:23:54;;;;;;;1.60;1.13;;;21.80;62.70;;;;;;5362696;26;20457;-96
2024/04/12 02:26:20;;;;;;;1.70;0.93;;;21.90;62.70;;;;;;5360522;26;20550;-96
2024/04/12 02:28:52;;;;;;;2.00;1.10;;;21.80;62.70;;;;;;5359085;26;20449;-96
2024/04/12 02:31:19;;;;;;;1.50;0.80;;;21.80;62.70;;;;;;5359637;26;20492;-96
2024/04/12 02:33:54;;;;;;;1.70;1.10;;;21.70;62.50;;;;;;5360442;26;20445;-96
2024/04/12 02:36:21;;;;;;;1.70;1.03;;;21.70;62.50;;;;;;5329727;26;20468;-96
2024/04/12 02:38:51;;;;;;;1.70;1.10;;;21.80;62.70;;;;;;5359470;26;20445;-95
2024/04/12 02:41:20;;;;;;;1.63;1.13;;;21.70;62.50;;;;;;5330437;26;20441;-95
2024/04/12 02:43:51;;;;;;;2.00;1.20;;;21.70;62.60;;;;;;5359702;26;21020;-96
2024/04/12 02:46:18;;;;;;;1.70;1.00;;;21.70;62.50;;;;;;5358949;26;21008;-94
2024/04/12 02:48:50;;;;;;;1.60;1.00;;;21.80;62.60;;;;;;5360027;26;20453;-96
2024/04/12 02:51:18;;;;;;;1.60;1.00;;;21.70;62.50;;;;;;5361377;26;20453;-93
2024/04/12 02:53:48;;;;;;;1.50;0.80;;;21.70;62.50;;;;;;5360457;26;20456;-96
2024/04/12 02:56:17;;;;;;;1.80;0.93;;;21.80;62.60;;;;;;5329818;26;20473;-96
2024/04/12 02:58:48;;;;;;;1.50;0.90;;;21.70;62.90;;;;;;5359167;26;20500;-96
2024/04/12 03:01:16;;;;;;;1.60;0.80;;;21.80;62.70;;;;;;5360568;26;20482;-96
2024/04/12 03:03:50;;;;;;;1.87;1.30;;;21.70;62.50;;;;;;5354131;26;20441;-96
2024/04/12 03:06:23;;;;;;;1.70;1.10;;;21.90;62.80;;;;;;5354925;26;20452;-96
2024/04/12 03:08:52;;;;;;;1.70;0.90;;;21.70;62.60;;;;;;5360433;26;20461;-94
2024/04/12 03:11:22;;;;;;;1.77;1.07;;;21.70;62.60;;;;;;5361239;26;20944;-94
2024/04/12 03:13:54;;;;;;;4.03;1.10;;;21.70;62.60;;;;;;5360914;26;20835;-94
2024/04/12 03:16:21;;;;;;;1.60;1.07;;;21.70;62.60;;;;;;5360648;26;20491;-96
2024/04/12 03:18:54;;;;;;;1.60;1.10;;;21.70;62.60;;;;;;5366561;26;20445;-96
2024/04/12 03:21:21;;;;;;;1.50;0.90;;;21.80;62.90;;;;;;5365476;26;20461;-96
2024/04/12 03:23:52;;;;;;;1.90;1.30;;;21.70;62.70;;;;;;5359242;26;20516;-94
2024/04/12 03:26:21;;;;;;;1.80;1.00;;;21.70;62.60;;;;;;5357923;26;20500;-94
2024/04/12 03:28:53;;;;;;;1.50;0.80;;;21.80;62.70;;;;;;5358149;26;20446;-94
2024/04/12 03:31:20;;;;;;;1.90;1.23;;;21.60;62.50;;;;;;5357620;26;20457;-96
2024/04/12 03:33:49;;;;;;;1.80;1.17;;;21.80;62.80;;;;;;5358015;26;20508;-96
2024/04/12 03:36:39;;;;;;;1.80;1.10;;;21.70;62.60;;;;;;5357501;26;20449;-95
2024/04/12 03:39:30;;;;;;;1.50;0.80;;;21.70;62.70;;;;;;5357138;26;20502;-96
2024/04/12 03:41:57;;;;;;;1.97;1.07;;;21.80;62.80;;;;;;5357480;26;20543;-95
2024/04/12 03:44:30;;;;;;;1.50;0.90;;;21.80;63.70;;;;;;5356779;26;20449;-96
2024/04/12 03:46:59;;;;;;;1.60;1.00;;;21.70;62.60;;;;;;5327535;26;20465;-95
2024/04/12 03:50:13;;;;;;;1.97;1.07;;;21.80;62.80;;;;;;5358519;26;21078;-95
2024/04/12 03:52:43;;;;;;;1.70;1.00;;;21.70;62.70;;;;;;5357663;26;20533;-96
2024/04/12 03:55:12;;;;;;;1.60;1.00;;;21.70;62.70;;;;;;5358479;26;20438;-96
2024/04/12 03:57:38;;;;;;;1.80;1.07;;;21.70;62.70;;;;;;5358216;26;20488;-95
2024/04/12 04:00:13;;;;;;;1.50;0.97;;;21.80;62.80;;;;;;5357925;26;20460;-94
2024/04/12 04:02:47;;;;;;;1.70;0.93;;;21.70;62.70;;;;;;5357095;26;20441;-96
2024/04/12 04:05:16;;;;;;;1.90;1.10;;;21.70;62.70;;;;;;5357953;26;20617;-96
2024/04/12 04:07:45;;;;;;;1.70;1.10;;;21.70;62.70;;;;;;5357561;26;20494;-96
2024/04/12 04:10:15;;;;;;;1.63;0.93;;;21.70;62.80;;;;;;5358580;26;20944;-96
2024/04/12 04:12:45;;;;;;;1.60;0.90;;;21.70;62.70;;;;;;5358165;26;20491;-96
2024/04/12 04:15:14;;;;;;;1.60;0.97;;;21.70;62.70;;;;;;5356553;26;20544;-96
2024/04/12 04:17:40;;;;;;;1.70;1.00;;;21.80;62.90;;;;;;5357892;26;20960;-96
2024/04/12 04:20:12;;;;;;;2.10;1.00;;;21.70;62.80;;;;;;5357596;26;20469;-96
2024/04/12 04:22:41;;;;;;;1.80;0.90;;;21.70;62.70;;;;;;5357746;26;20257;-94
2024/04/12 04:25:13;;;;;;;1.70;1.20;;;21.70;62.70;;;;;;5358261;26;20503;-95
2024/04/12 04:27:42;;;;;;;2.47;1.10;;;21.70;62.80;;;;;;5357384;26;20445;-96
2024/04/12 04:30:11;;;;;;;1.50;0.87;;;21.80;62.90;;;;;;5357133;26;20453;-97
2024/04/12 04:32:39;;;;;;;1.83;0.97;;;21.70;62.70;;;;;;5327331;26;20561;-95
2024/04/12 04:35:05;;;;;;;1.70;1.00;;;21.80;62.90;;;;;;5355382;26;20501;-94
2024/04/12 04:37:37;;;;;;;1.60;1.00;;;21.70;62.80;;;;;;5357345;26;20525;-95
2024/04/12 04:40:16;;;;;;;1.60;1.00;;;21.80;62.90;;;;;;5327062;26;20783;-96
2024/04/12 04:42:49;;;;;;;1.70;1.00;;;21.70;62.80;;;;;;5357259;26;20449;-96
2024/04/12 04:45:17;;;;;;;1.83;1.20;;;21.70;62.80;;;;;;5356035;26;20453;-94
2024/04/12 04:47:46;;;;;;;1.60;0.93;;;21.70;62.80;;;;;;5358113;26;20449;-95
2024/04/12 04:50:13;;;;;;;1.50;0.90;;;21.70;62.80;;;;;;5366140;26;20521;-94
2024/04/12 04:52:42;;;;;;;1.73;1.13;;;21.70;62.80;;;;;;5370860;26;20446;-95
2024/04/12 04:55:08;;;;;;;1.63;0.97;;;21.70;62.80;;;;;;5366720;26;20525;-95
2024/04/12 04:57:43;;;;;;;1.60;0.97;;;21.70;62.90;;;;;;5353262;26;20457;-96
2024/04/12 05:00:18;;;;;;;1.50;0.90;;;21.80;63.00;;;;;;5353023;26;20311;-96
2024/04/12 05:02:49;;;;;;;2.03;1.03;;;21.70;62.80;;;;;;5352209;26;20437;-95
2024/04/12 05:05:22;;;;;;;1.60;0.90;;;21.70;62.90;;;;;;5351386;26;20827;-95
2024/04/12 05:07:52;;;;;;;1.60;0.90;;;21.70;62.90;;;;;;5350805;26;20441;-95
2024/04/12 05:10:21;;;;;;;2.10;0.90;;;21.80;63.00;;;;;;5352410;26;20445;-95
2024/04/12 05:12:48;;;;;;;2.43;1.00;;;21.80;63.00;;;;;;5352872;26;20534;-96
2024/04/12 05:18:03;;;;;;;1.90;0.90;;;21.70;62.90;;;;;;5353039;26;20453;-96
2024/04/12 05:20:38;;;;;;;1.70;1.00;;;21.70;62.90;;;;;;5353330;26;20507;-96
2024/04/12 05:23:11;;;;;;;1.70;1.20;;;21.60;62.80;;;;;;5353017;26;20931;-95
2024/04/12 05:25:40;;;;;;;1.70;1.20;;;21.70;62.90;;;;;;5356528;26;20497;-94
2024/04/12 05:28:10;;;;;;;1.60;0.90;;;21.70;62.90;;;;;;5355858;26;20485;-95
2024/04/12 05:30:42;;;;;;;1.50;0.80;;;21.70;63.80;;;;;;5355248;26;20482;-96
2024/04/12 05:33:13;;;;;;;1.77;1.03;;;21.70;62.90;;;;;;5354467;26;21015;-96
2024/04/12 05:35:42;;;;;;;1.60;1.00;;;21.70;62.90;;;;;;5353624;26;20782;-96
2024/04/12 05:38:12;;;;;;;1.60;0.90;;;21.80;63.00;;;;;;5354272;26;20566;-96
2024/04/12 05:40:41;;;;;;;1.63;1.10;;;21.80;63.00;;;;;;5353288;26;21028;-94
2024/04/12 05:43:13;;;;;;;1.70;1.00;;;21.70;62.90;;;;;;5352307;26;20461;-95
2024/04/12 05:45:44;;;;;;;1.70;1.00;;;21.60;62.80;;;;;;5352825;26;20586;-95
2024/04/12 05:48:16;;;;;;;1.87;1.00;;;21.80;63.00;;;;;;5352813;26;20448;-96
2024/04/12 05:50:46;;;;;;;1.50;0.90;;;21.70;62.90;;;;;;5353037;26;20521;-93
2024/04/12 05:53:15;;;;;;;1.80;1.10;;;21.80;63.10;;;;;;5353143;26;20548;-94
2024/04/12 05:55:44;;;;;;;1.50;0.90;;;21.70;63.00;;;;;;5353936;26;20491;-96
2024/04/12 05:58:13;;;;;;;1.60;1.00;;;21.80;63.10;;;;;;5355351;26;20535;-96
2024/04/12 06:00:47;;;;;;;1.60;1.00;;;21.70;63.00;;;;;;5354895;26;20486;-95
2024/04/12 06:03:14;;;;;;;1.50;0.80;;;21.70;63.00;;;;;;5354938;26;20437;-94
2024/04/12 06:05:43;;;;;;;2.23;1.00;;;21.70;62.90;;;;;;5355403;26;20505;-96
2024/04/12 06:08:12;;;;;;;1.60;0.87;;;21.80;63.10;;;;;;5355278;26;20952;-96
2024/04/12 06:10:44;;;;;;;1.60;0.90;;;21.70;63.00;;;;;;5355344;26;20500;-96
2024/04/12 06:13:11;;;;;;;2.23;1.00;;;21.70;63.00;;;;;;5355421;26;20441;-93
2024/04/12 06:15:40;;;;;;;1.60;0.97;;;21.70;63.00;;;;;;5354731;26;20441;-95
2024/04/12 06:18:09;;;;;;;1.60;1.10;;;21.50;62.80;;;;;;5355155;26;20445;-96
2024/04/12 06:20:37;;;;;;;1.70;1.00;;;21.70;63.00;;;;;;5360095;26;20501;-95
2024/04/12 06:23:06;;;;;;;1.50;0.90;;;21.80;63.10;;;;;;5357249;26;20513;-94
2024/04/12 06:25:38;;;;;;;1.63;1.00;;;21.80;63.10;;;;;;5356435;26;20512;-95
2024/04/12 06:28:11;;;;;;;1.73;1.00;;;21.60;62.90;;;;;;5355361;26;20479;-96
2024/04/12 06:30:40;;;;;;;1.60;1.07;;;21.70;63.00;;;;;;5356013;26;20469;-95
2024/04/12 06:33:12;;;;;;;1.70;1.00;;;21.70;63.00;;;;;;5355145;26;20663;-96
2024/04/12 06:35:44;;;;;;;1.80;1.10;;;21.70;63.00;;;;;;5355502;26;20597;-96
2024/04/12 06:38:10;;;;;;;2.00;1.00;;;21.70;63.10;;;;;;5354537;26;20457;-96
2024/04/12 06:40:44;;;;;;;1.73;1.00;;;21.60;62.90;;;;;;5354362;26;20445;-96
2024/04/12 06:43:11;;;;;;;1.50;0.90;;;21.70;63.00;;;;;;5355219;26;20816;-96
2024/04/12 06:45:45;;;;;;;2.00;1.10;;;21.70;63.10;;;;;;5354742;26;20560;-96
2024/04/12 06:48:16;;;;;;;1.53;0.80;;;21.80;63.10;;;;;;5354896;26;21001;-95
2024/04/12 06:50:55;;;;;;;1.60;1.20;;;21.70;63.10;;;;;;5353852;26;20466;-96
2024/04/12 06:53:23;;;;;;;1.80;1.20;;;21.70;63.10;;;;;;5363550;26;20509;-94
2024/04/12 06:55:54;;;;;;;1.60;0.90;;;21.80;63.20;;;;;;5372679;26;20425;-93
2024/04/12 06:58:21;;;;;;;1.50;0.83;;;21.70;63.00;;;;;;5372624;26;20473;-93
2024/04/12 07:00:56;;;;;;;1.60;0.90;;;21.60;62.90;;;;;;5370330;26;20960;-95
2024/04/12 07:03:25;;;;;;;1.60;0.90;;;21.50;62.90;;;;;;5361813;26;20436;-96
2024/04/12 07:05:54;;;;;;;1.70;0.83;;;21.70;63.10;;;;;;5357941;26;20500;-96
2024/04/12 07:08:21;;;;;;;1.50;0.90;;;21.70;63.10;;;;;;5356540;26;20449;-94
2024/04/12 07:10:51;;;;;;;1.60;1.03;;;21.60;62.90;;;;;;5355395;26;20525;-95
2024/04/12 07:13:21;;;;;;;1.60;1.10;;;21.70;63.20;;;;;;5355343;26;20935;-95
2024/04/12 07:15:51;;;;;;;1.60;0.90;;;21.70;63.10;;;;;;5354804;26;20543;-95
2024/04/12 07:18:17;;;;;;;1.77;0.90;;;21.70;63.10;;;;;;5354879;26;20454;-95
2024/04/12 07:20:48;;;;;;;2.43;1.10;;;21.60;63.00;;;;;;5354054;26;20830;-96
2024/04/12 07:23:15;;;;;;;1.60;1.00;;;21.80;63.10;;;;;;5353735;26;20448;-94
2024/04/12 07:25:45;;;;;;;1.60;0.90;;;21.70;63.10;;;;;;5353856;26;20450;-96
2024/04/12 07:28:13;;;;;;;1.70;1.00;;;21.70;63.10;;;;;;5353133;26;20495;-95
2024/04/12 07:30:44;;;;;;;2.07;1.20;;;21.60;62.90;;;;;;5352006;26;20513;-96
2024/04/12 07:33:12;;;;;;;1.80;0.90;;;21.70;63.20;;;;;;5351197;26;20489;-96
2024/04/12 07:35:43;;;;;;;1.70;1.00;;;21.60;63.00;;;;;;5351575;26;21033;-95
2024/04/12 07:38:11;;;;;;;1.60;0.90;;;21.70;63.10;;;;;;5351843;26;20469;-95
2024/04/12 07:40:43;;;;;;;1.50;0.80;;;21.70;63.20;;;;;;5351732;26;20445;-95
2024/04/12 07:43:10;;;;;;;1.43;0.80;;;21.70;63.10;;;;;;5351523;26;20449;-95
2024/04/12 07:45:40;;;;;;;1.53;0.90;;;21.60;63.00;;;;;;5351925;26;20559;-95
2024/04/12 07:48:23;;;;;;;1.80;1.20;;;21.70;63.20;;;;;;5353693;26;20433;-96
2024/04/12 07:50:55;;;;;;;2.00;0.90;;;21.60;63.10;;;;;;5353891;26;20571;-95
2024/04/12 07:53:24;;;;;;;1.50;0.90;;;21.80;63.30;;;;;;5360059;26;20538;-93
2024/04/12 07:56:00;;;;;;;1.50;0.80;;;21.60;63.10;;;;;;5371907;26;20445;-94
2024/04/12 07:58:27;;;;;;;1.47;0.80;;;21.70;63.10;;;;;;5367609;26;20497;-96
2024/04/12 08:01:09;;;;;;;1.50;0.87;;;21.60;63.00;;;;;;5351619;26;20557;-95
2024/04/12 08:03:36;;;;;;;1.70;0.93;;;21.60;63.10;;;;;;5354034;26;20905;-95
2024/04/12 08:06:19;;;;;;;1.80;0.80;;;21.60;63.00;;;;;;5352110;26;20500;-94
2024/04/12 08:09:03;;;;;;;1.70;0.93;;;21.60;63.00;;;;;;5351562;26;20568;-96
2024/04/12 08:11:35;;;;;;;1.60;0.90;;;21.70;63.10;;;;;;5351063;26;20956;-95
2024/04/12 08:14:05;;;;;;;1.50;0.90;;;21.80;63.30;;;;;;5350643;26;20561;-93
2024/04/12 08:16:38;;;;;;;1.70;1.00;;;21.60;63.10;;;;;;5350898;26;20481;-94
2024/04/12 08:19:11;;;;;;;1.60;0.93;;;21.70;63.20;;;;;;5350909;26;20441;-95
2024/04/12 08:21:41;;;;;;;1.97;1.00;;;21.70;63.20;;;;;;5352176;26;20457;-95
2024/04/12 08:24:14;;;;;;;1.50;0.87;;;21.70;63.20;;;;;;5352094;26;20847;-95
2024/04/12 08:26:45;;;;;;;1.60;1.00;;;21.70;63.20;;;;;;5351605;26;20456;-96
2024/04/12 08:29:20;;;;;;;1.60;1.00;;;21.70;63.20;;;;;;5350586;26;20489;-93
2024/04/12 08:31:59;;;;;;;1.63;1.00;;;21.70;63.20;;;;;;5351015;26;20441;-95
2024/04/12 08:34:26;;;;;;;1.60;0.90;;;21.60;63.00;;;;;;5320503;26;20508;-94
2024/04/12 08:36:56;;;;;;;1.60;1.00;;;21.60;62.90;;;;;;5350680;26;20566;-95
2024/04/12 08:39:29;;;;;;;1.57;0.93;;;21.70;63.10;;;;;;5350307;26;20487;-93
2024/04/12 08:42:04;;;;;;;1.60;1.00;;;21.70;63.20;;;;;;5350235;26;20445;-94
2024/04/12 08:44:31;;;;;;;1.77;1.10;;;21.70;63.10;;;;;;5350138;26;20453;-95
2024/04/12 08:47:16;;;;;;;1.60;0.97;;;21.70;63.20;;;;;;5350823;26;20787;-94
2024/04/12 08:49:48;;;;;;;1.63;1.00;;;21.70;63.20;;;;;;5350271;26;20457;-95
2024/04/12 08:52:29;;;;;;;1.77;0.90;;;21.80;63.30;;;;;;5350651;26;20579;-96
2024/04/12 08:54:59;;;;;;;1.40;0.70;;;21.70;63.20;;;;;;5281898;27;20445;-95
2024/04/12 08:57:33;;;;;;;1.50;0.83;;;21.70;63.10;;;;;;5281908;27;20444;-96
2024/04/12 08:59:59;;;;;;;1.70;1.03;;;21.70;63.20;;;;;;5282374;27;20492;-95
2024/04/12 09:02:33;;;;;;;1.70;1.00;;;21.60;63.00;;;;;;5283093;27;20568;-96
2024/04/12 09:04:59;;;;;;;1.60;1.00;;;21.60;63.00;;;;;;5284284;27;20440;-96
2024/04/12 09:07:29;;;;;;;1.70;0.90;;;21.70;63.20;;;;;;5283810;27;20452;-96
2024/04/12 09:09:58;;;;;;;1.60;1.03;;;21.80;63.30;;;;;;5283255;27;20213;-95
2024/04/12 09:12:29;;;;;;;1.50;0.90;;;21.70;64.00;;;;;;5283396;27;20559;-95
2024/04/12 09:14:55;;;;;;;1.90;0.90;;;21.70;63.20;;;;;;5284359;27;20494;-96
2024/04/12 09:17:28;;;;;;;4.90;1.00;;;21.70;63.20;;;;;;5285708;27;20541;-96
2024/04/12 09:19:57;;;;;;;1.63;1.00;;;21.70;63.10;;;;;;5284435;27;20464;-96
2024/04/12 09:22:29;;;;;;;1.50;0.80;;;21.70;63.10;;;;;;5282860;27;20467;-96
2024/04/12 09:25:08;;;;;;;1.60;1.00;;;21.70;63.10;;;;;;5289622;27;20560;-94
2024/04/12 09:27:44;;;;;;;1.50;0.90;;;21.80;63.30;;;;;;5285998;27;20500;-95
2024/04/12 09:33:00;;;;;;;1.70;0.93;;;21.60;63.00;;;;;;5283452;27;20495;-96
2024/04/12 09:35:34;;;;;;;1.50;0.87;;;21.70;63.20;;;;;;5282134;27;20497;-95
2024/04/12 09:38:05;;;;;;;1.80;1.10;;;21.70;63.10;;;;;;5280946;27;20437;-95
2024/04/12 09:40:40;;;;;;;1.50;0.90;;;21.60;63.00;;;;;;5281243;27;20510;-96
2024/04/12 09:43:29;;;;;;;1.60;1.00;;;21.60;63.00;;;;;;5280796;27;20482;-96
2024/04/12 09:46:08;;;;;;;1.80;1.00;;;21.70;63.10;;;;;;5281982;27;20452;-96
2024/04/12 10:39:44;;;;;;;1.60;1.00;;;21.70;63.20;;;;;;5355974;26;21016;-96
2024/04/12 10:42:14;;;;;;;1.60;0.90;;;21.70;63.20;;;;;;5353126;26;20438;-95
2024/04/12 10:44:47;;;;;;;1.50;0.90;;;21.60;62.90;;;;;;5353604;26;20450;-94
2024/04/12 10:47:20;;;;;;;1.80;1.00;;;21.60;62.90;;;;;;5354058;26;20453;-96
2024/04/12 10:49:46;;;;;;;1.50;0.90;;;21.70;63.10;;;;;;5353481;26;20539;-96
2024/04/12 10:52:15;;;;;;;1.53;0.90;;;21.70;63.00;;;;;;5354661;26;20453;-94
2024/04/12 10:54:42;;;;;;;2.03;0.80;;;21.80;63.20;;;;;;5357544;26;20441;-94
2024/04/12 10:57:11;;;;;;;1.50;0.90;;;21.70;63.90;;;;;;5364189;26;20493;-93
2024/04/12 10:59:42;;;;;;;2.00;1.20;;;21.80;63.00;;;;;;5372563;26;20504;-92
2024/04/12 11:02:13;;;;;;;1.60;1.03;;;21.70;63.00;;;;;;5372098;26;20525;-95
2024/04/12 11:07:25;;;;;;;1.60;1.00;;;21.70;62.90;;;;;;5351970;26;20544;-96
2024/04/12 11:09:57;;;;;;;1.60;0.90;;;21.70;62.90;;;;;;5354124;26;20445;-95
2024/04/12 11:12:28;;;;;;;1.60;0.90;;;21.70;62.90;;;;;;5354138;26;20980;-96
2024/04/12 11:15:12;;;;;;;1.60;1.00;;;21.70;62.80;;;;;;5355121;26;20494;-96
2024/04/12 11:31:40;;;;;;;1.40;0.90;;;21.60;62.80;;;;;;5251004;27;20454;-95
2024/04/12 11:34:09;;;;;;;1.50;1.00;;;21.70;63.10;;;;;;5306962;26;21032;-95
2024/04/12 11:36:41;;;;;;;1.60;1.00;;;21.70;63.30;;;;;;5351569;26;20442;-96
2024/04/12 11:39:17;;;;;;;1.47;0.90;;;21.80;63.20;;;;;;5351549;26;20505;-96
2024/04/12 11:41:47;;;;;;;1.60;0.90;;;21.70;63.20;;;;;;5352648;26;20940;-96
2024/04/12 11:44:17;;;;;;;1.60;0.90;;;21.80;63.20;;;;;;5352741;26;20488;-96
2024/04/12 11:46:48;;;;;;;1.50;0.90;;;21.70;63.30;;;;;;5357358;26;20433;-93
2024/04/12 11:49:24;;;;;;;1.53;0.90;;;21.70;63.40;;;;;;5371949;26;20446;-93
2024/04/12 11:52:01;;;;;;;1.70;1.00;;;21.70;63.40;;;;;;5371906;26;20441;-94
2024/04/12 11:54:29;;;;;;;1.67;1.00;;;21.70;63.60;;;;;;5369127;26;20544;-95
2024/04/12 11:56:59;;;;;;;1.70;1.00;;;21.80;63.50;;;;;;5356366;26;20449;-96
2024/04/12 11:59:27;;;;;;;1.80;1.07;;;21.70;63.80;;;;;;5353256;26;20501;-96
2024/04/12 12:01:58;;;;;;;1.63;1.10;;;21.80;64.90;;;;;;5353965;26;20490;-93
2024/04/12 12:04:25;;;;;;;1.50;0.90;;;21.80;64.10;;;;;;5356089;26;20492;-96
2024/04/12 12:06:59;;;;;;;1.70;1.00;;;21.70;64.00;;;;;;5364928;26;20449;-96
2024/04/12 12:09:31;;;;;;;1.80;1.03;;;21.70;63.30;;;;;;5362221;26;20500;-95
2024/04/12 12:12:03;;;;;;;1.50;0.80;;;21.70;63.60;;;;;;5362366;26;20568;-95
2024/04/12 12:14:33;;;;;;;1.70;1.10;;;21.70;63.90;;;;;;5363583;26;20521;-96
2024/04/12 12:17:09;;;;;;;1.50;0.90;;;21.80;63.70;;;;;;5363770;26;20442;-96
2024/04/12 12:19:35;;;;;;;1.50;0.90;;;21.80;63.70;;;;;;5360445;26;20437;-96
2024/04/12 12:22:10;;;;;;;2.00;1.00;;;21.80;63.60;;;;;;5355958;26;20500;-96
2024/04/12 12:24:37;;;;;;;1.50;1.00;;;21.70;63.90;;;;;;5356152;26;20500;-96
2024/04/12 12:27:08;;;;;;;1.60;1.00;;;21.80;64.00;;;;;;5352328;26;20449;-96
2024/04/12 12:29:35;;;;;;;1.70;0.90;;;21.70;63.60;;;;;;5356393;26;20434;-96
2024/04/12 12:32:04;;;;;;;1.70;1.00;;;21.80;63.80;;;;;;5354026;26;20459;-96
2024/04/12 12:34:33;;;;;;;1.60;0.90;;;21.70;64.50;;;;;;5354249;26;20449;-96
2024/04/12 12:37:01;;;;;;;1.60;1.00;;;21.80;63.70;;;;;;5354274;26;20508;-95
2024/04/12 12:39:31;;;;;;;1.73;1.03;;;21.70;63.70;;;;;;5355706;26;20490;-94
2024/04/12 12:42:01;;;;;;;1.60;0.90;;;21.80;64.00;;;;;;5354894;26;20485;-96
2024/04/12 12:44:28;;;;;;;2.77;1.10;;;21.80;63.90;;;;;;5355443;26;20496;-96
2024/04/12 12:46:59;;;;;;;1.73;1.00;;;21.80;63.90;;;;;;5357524;26;21075;-95
2024/04/12 12:49:25;;;;;;;2.37;1.03;;;21.80;64.20;;;;;;5356611;26;20457;-94
2024/04/12 12:51:54;;;;;;;1.50;1.00;;;21.90;64.00;;;;;;5356427;26;20449;-96
2024/04/12 12:54:20;;;;;;;1.70;1.20;;;21.80;64.20;;;;;;5355778;26;20461;-96
2024/04/12 12:56:53;;;;;;;1.90;1.00;;;21.80;63.80;;;;;;5355852;26;20453;-96
2024/04/12 12:59:56;;;;;;;1.77;1.03;;;21.90;64.30;;;;;;5355020;26;20461;-94
2024/04/12 13:02:25;;;;;;;1.57;0.87;;;21.80;64.90;;;;;;5356806;26;20487;-96
2024/04/12 13:04:51;;;;;;;1.60;0.90;;;21.80;63.80;;;;;;5358797;26;20449;-95
2024/04/12 13:07:22;;;;;;;1.80;1.00;;;21.90;64.00;;;;;;5359465;26;20496;-94
2024/04/12 13:09:53;;;;;;;1.50;0.80;;;21.80;63.60;;;;;;5360531;26;20541;-96
2024/04/12 13:12:28;;;;;;;1.50;0.90;;;21.80;64.10;;;;;;5356697;26;20449;-95
2024/04/12 13:14:57;;;;;;;1.60;1.00;;;21.80;63.60;;;;;;5356626;26;20524;-94
2024/04/12 13:17:26;;;;;;;1.80;1.03;;;21.80;63.60;;;;;;5354038;26;20944;-96
2024/04/12 13:19:52;;;;;;;1.50;0.90;;;21.80;63.90;;;;;;5355356;26;20461;-95
2024/04/12 13:22:23;;;;;;;1.80;1.33;;;21.80;63.40;;;;;;5355381;26;20506;-96
2024/04/12 13:24:51;;;;;;;1.80;1.20;;;21.80;63.70;;;;;;5354515;26;20968;-96
2024/04/12 13:27:23;;;;;;;1.70;1.10;;;21.80;63.70;;;;;;5358186;26;20433;-95
2024/04/12 13:29:51;;;;;;;1.60;1.10;;;21.80;63.80;;;;;;5357470;26;20461;-96
2024/04/12 13:32:20;;;;;;;1.60;0.97;;;21.90;63.70;;;;;;5357271;26;20491;-96
2024/04/12 13:34:46;;;;;;;1.53;1.00;;;21.80;63.70;;;;;;5327875;26;20514;-96
2024/04/12 13:37:21;;;;;;;1.60;0.90;;;21.80;63.70;;;;;;5327331;26;20441;-96
2024/04/12 13:39:48;;;;;;;1.60;0.90;;;21.90;63.70;;;;;;5325537;26;21003;-96
2024/04/12 13:42:20;;;;;;;1.57;0.90;;;21.80;63.80;;;;;;5353631;26;20444;-96
2024/04/12 13:53:09;;;;;;;1.60;0.90;;;21.80;63.70;;;;;;5358213;26;20506;-96
2024/04/12 13:55:39;;;;;;;1.50;0.90;;;21.80;63.70;;;;;;5357728;26;20449;-96
2024/04/12 13:58:07;;;;;;;1.70;0.90;;;21.80;63.80;;;;;;5358024;26;20557;-95
2024/04/12 14:00:36;;;;;;;1.60;1.00;;;21.80;64.10;;;;;;5364054;26;20537;-93
2024/04/12 14:03:06;;;;;;;1.50;0.90;;;21.70;63.90;;;;;;5368547;26;20515;-93
2024/04/12 14:05:36;;;;;;;1.70;1.00;;;21.80;64.00;;;;;;5373327;26;20488;-92
2024/04/12 14:08:07;;;;;;;1.50;1.00;;;21.80;63.80;;;;;;5371924;26;21010;-96
2024/04/12 14:10:36;;;;;;;1.50;0.93;;;21.80;63.80;;;;;;5364273;26;20619;-95
2024/04/12 14:13:04;;;;;;;1.87;1.07;;;21.90;64.00;;;;;;5362953;26;20507;-96
2024/04/12 14:15:35;;;;;;;1.60;1.00;;;21.80;63.70;;;;;;5362617;26;20540;-95
2024/04/12 14:18:07;;;;;;;1.63;1.00;;;21.80;64.10;;;;;;5360861;26;21000;-96
2024/04/12 14:20:35;;;;;;;1.50;0.90;;;21.90;63.90;;;;;;5361159;26;21036;-96
2024/04/12 14:23:01;;;;;;;1.60;1.10;;;21.80;64.20;;;;;;5361141;26;20796;-95
2024/04/12 14:25:34;;;;;;;1.60;0.80;;;21.80;63.80;;;;;;5360727;26;20521;-96
2024/04/12 14:28:00;;;;;;;1.50;0.90;;;21.80;63.80;;;;;;5329857;26;20580;-94